Time;durP1;ratioP1;P1;durP2;ratioP2;P2;SDS_P1;SDS_P2;PMS_P1;PMS_P2;Temp;Humidity;BMP_temperature;BMP_pressure;BME280_temperature;BME280_humidity;BME280_pressure;Samples;Min_cycle;Max_cycle;Signal;HPM_P1;HPM_P2
2021/12/11 00:01:52;;;;;;;2.25;1.10;;;;;;;;;;7381546;19;20010;-73
2021/12/11 00:04:32;;;;;;;3.55;1.00;;;;;;;;;;7384997;19;20009;-73
2021/12/11 00:07:02;;;;;;;3.00;1.00;;;;;;;;;;7382439;19;20479;-73
2021/12/11 00:10:04;;;;;;;1.88;0.85;;;;;;;;;;7385620;19;20006;-72
2021/12/11 00:12:36;;;;;;;4.35;1.00;;;;;;;;;;7380070;19;20129;-72
2021/12/11 00:15:17;;;;;;;3.00;1.25;;;;;;;;;;7385183;19;20011;-72
2021/12/11 00:17:44;;;;;;;1.30;0.60;;;;;;;;;;7385783;19;20015;-72
2021/12/11 00:20:24;;;;;;;1.77;1.02;;;;;;;;;;7382990;19;20010;-72
2021/12/11 00:22:53;;;;;;;2.03;0.70;;;;;;;;;;7383181;19;20025;-72
2021/12/11 00:25:19;;;;;;;3.35;1.23;;;;;;;;;;7385242;19;20010;-72
2021/12/11 00:27:47;;;;;;;2.55;0.80;;;;;;;;;;7385930;19;20013;-72
2021/12/11 00:30:29;;;;;;;1.77;0.68;;;;;;;;;;7383598;19;20339;-72
2021/12/11 00:33:07;;;;;;;2.50;1.08;;;;;;;;;;7386451;19;20006;-72
2021/12/11 00:35:34;;;;;;;1.35;0.63;;;;;;;;;;7387557;19;20603;-72
2021/12/11 00:38:06;;;;;;;2.55;0.88;;;;;;;;;;7386696;19;20013;-73
2021/12/11 00:40:32;;;;;;;1.38;0.50;;;;;;;;;;7384248;19;20092;-72
2021/12/11 00:43:03;;;;;;;3.40;0.77;;;;;;;;;;7383151;19;20014;-73
2021/12/11 00:45:32;;;;;;;2.78;0.60;;;;;;;;;;7382943;19;20014;-72
2021/12/11 00:48:06;;;;;;;2.83;0.73;;;;;;;;;;7383990;19;20219;-73
2021/12/11 00:50:39;;;;;;;2.80;0.75;;;;;;;;;;7380814;19;20023;-72
2021/12/11 00:53:22;;;;;;;0.95;0.68;;;;;;;;;;7384697;19;20070;-73
2021/12/11 00:55:51;;;;;;;2.33;0.63;;;;;;;;;;7384847;19;20285;-72
2021/12/11 00:58:23;;;;;;;2.45;0.70;;;;;;;;;;7379057;19;20005;-73
2021/12/11 01:01:06;;;;;;;1.38;0.70;;;;;;;;;;7381705;19;20011;-73
2021/12/11 01:03:41;;;;;;;2.60;0.77;;;;;;;;;;7382490;19;20082;-72
2021/12/11 01:06:18;;;;;;;3.08;0.77;;;;;;;;;;7384823;19;20010;-73
2021/12/11 01:08:55;;;;;;;3.08;0.80;;;;;;;;;;7381708;19;20019;-72
2021/12/11 01:11:30;;;;;;;1.77;0.68;;;;;;;;;;7381617;19;20011;-73
2021/12/11 01:14:31;;;;;;;1.50;0.60;;;;;;;;;;7384428;19;20014;-72
2021/12/11 01:17:20;;;;;;;2.38;0.60;;;;;;;;;;7381702;19;20002;-72
2021/12/11 01:19:50;;;;;;;2.20;1.00;;;;;;;;;;7383824;19;20441;-74
2021/12/11 01:22:37;;;;;;;1.60;0.55;;;;;;;;;;7381968;19;20469;-72
2021/12/11 01:25:14;;;;;;;2.03;0.60;;;;;;;;;;7382169;19;20014;-72
2021/12/11 01:27:43;;;;;;;0.68;0.50;;;;;;;;;;7382380;19;20445;-72
2021/12/11 01:30:13;;;;;;;0.50;0.50;;;;;;;;;;7377963;19;20011;-72
2021/12/11 01:32:39;;;;;;;0.90;0.65;;;;;;;;;;7384423;19;20483;-72
2021/12/11 01:35:08;;;;;;;4.53;0.85;;;;;;;;;;7382155;19;20009;-72
2021/12/11 01:37:34;;;;;;;1.20;0.43;;;;;;;;;;7384164;19;20078;-72
2021/12/11 01:40:02;;;;;;;1.55;0.65;;;;;;;;;;7388673;19;20224;-74
2021/12/11 01:42:31;;;;;;;0.70;0.70;;;;;;;;;;7378330;19;20561;-72
2021/12/11 01:44:58;;;;;;;1.00;0.60;;;;;;;;;;7383189;19;20006;-72
2021/12/11 01:47:30;;;;;;;1.15;0.50;;;;;;;;;;7383422;19;20003;-72
2021/12/11 01:50:01;;;;;;;2.72;0.60;;;;;;;;;;7381698;19;20005;-72
2021/12/11 01:52:38;;;;;;;0.85;0.52;;;;;;;;;;7380402;19;20028;-72
2021/12/11 01:55:38;;;;;;;0.95;0.40;;;;;;;;;;7382591;19;20471;-72
2021/12/11 01:58:06;;;;;;;0.68;0.60;;;;;;;;;;7381558;19;20013;-74
2021/12/11 02:00:45;;;;;;;0.52;0.40;;;;;;;;;;7384152;19;20011;-73
2021/12/11 02:03:15;;;;;;;1.60;0.70;;;;;;;;;;7383034;19;20066;-74
2021/12/11 02:05:42;;;;;;;1.88;0.65;;;;;;;;;;7386693;19;20076;-72
2021/12/11 02:08:12;;;;;;;1.83;0.52;;;;;;;;;;7381933;19;20010;-74
2021/12/11 02:10:46;;;;;;;0.30;0.30;;;;;;;;;;7384105;19;20039;-74
2021/12/11 02:13:20;;;;;;;0.40;0.40;;;;;;;;;;7378164;19;20602;-72
2021/12/11 02:15:50;;;;;;;2.20;0.52;;;;;;;;;;7379862;19;20287;-72
2021/12/11 02:18:23;;;;;;;1.13;0.57;;;;;;;;;;7382831;19;20535;-72
2021/12/11 02:20:59;;;;;;;0.60;0.45;;;;;;;;;;7380634;19;20007;-72
2021/12/11 02:23:26;;;;;;;1.08;0.45;;;;;;;;;;7380439;19;20010;-72
2021/12/11 02:25:55;;;;;;;1.08;0.47;;;;;;;;;;7381029;19;20049;-72
2021/12/11 02:28:27;;;;;;;1.08;0.50;;;;;;;;;;7379972;19;20356;-72
2021/12/11 02:31:00;;;;;;;0.90;0.50;;;;;;;;;;7381263;19;20803;-72
2021/12/11 02:33:31;;;;;;;1.10;0.43;;;;;;;;;;7382357;19;20408;-72
2021/12/11 02:36:13;;;;;;;1.27;0.70;;;;;;;;;;7382932;19;20834;-73
2021/12/11 02:38:44;;;;;;;2.65;0.65;;;;;;;;;;7378226;19;20122;-72
2021/12/11 02:41:19;;;;;;;2.00;0.70;;;;;;;;;;7379867;19;20006;-72
2021/12/11 02:43:57;;;;;;;1.02;0.60;;;;;;;;;;7381417;19;20013;-72
2021/12/11 02:47:01;;;;;;;1.80;0.60;;;;;;;;;;7380922;19;20006;-72
2021/12/11 02:49:37;;;;;;;0.60;0.43;;;;;;;;;;7377897;19;20006;-72
2021/12/11 02:52:24;;;;;;;1.40;0.57;;;;;;;;;;7376292;19;20389;-72
2021/12/11 02:54:58;;;;;;;1.20;0.73;;;;;;;;;;7383503;19;20062;-72
2021/12/11 02:57:32;;;;;;;1.58;0.93;;;;;;;;;;7390202;19;20017;-72
2021/12/11 03:00:21;;;;;;;1.10;0.70;;;;;;;;;;7386993;19;20103;-72
2021/12/11 03:02:50;;;;;;;1.13;1.00;;;;;;;;;;7386761;19;19998;-72
2021/12/11 03:05:24;;;;;;;1.35;0.73;;;;;;;;;;7388672;19;20422;-72
2021/12/11 03:07:52;;;;;;;2.83;0.65;;;;;;;;;;7387347;19;20002;-72
2021/12/11 03:10:23;;;;;;;0.43;0.30;;;;;;;;;;7384878;19;20456;-72
2021/12/11 03:12:48;;;;;;;0.88;0.47;;;;;;;;;;7388126;19;20027;-72
2021/12/11 03:15:16;;;;;;;2.05;0.52;;;;;;;;;;7384979;19;20006;-73
2021/12/11 03:17:43;;;;;;;0.47;0.47;;;;;;;;;;7388491;19;20492;-74
2021/12/11 03:20:10;;;;;;;2.83;0.68;;;;;;;;;;7384627;19;20015;-74
2021/12/11 03:22:36;;;;;;;1.30;0.70;;;;;;;;;;7384731;19;20006;-72
2021/12/11 03:25:06;;;;;;;2.72;0.77;;;;;;;;;;7388819;19;20354;-72
2021/12/11 03:27:31;;;;;;;2.22;0.65;;;;;;;;;;7388156;19;20371;-72
2021/12/11 03:29:57;;;;;;;2.85;0.80;;;;;;;;;;7385654;19;20006;-72
2021/12/11 03:32:22;;;;;;;2.10;0.90;;;;;;;;;;7385774;19;20017;-72
2021/12/11 03:34:50;;;;;;;1.52;0.50;;;;;;;;;;7389718;19;20017;-72
2021/12/11 03:37:18;;;;;;;1.63;0.50;;;;;;;;;;7382992;19;20028;-72
2021/12/11 03:39:48;;;;;;;2.05;0.80;;;;;;;;;;7387408;19;20007;-72
2021/12/11 03:42:18;;;;;;;5.88;0.75;;;;;;;;;;7383979;19;20100;-72
2021/12/11 03:44:44;;;;;;;1.25;0.80;;;;;;;;;;7386474;19;20035;-72
2021/12/11 03:47:15;;;;;;;1.55;0.57;;;;;;;;;;7387912;19;20009;-74
2021/12/11 03:49:41;;;;;;;1.15;0.73;;;;;;;;;;7387223;19;20014;-74
2021/12/11 03:52:08;;;;;;;2.15;0.70;;;;;;;;;;7387406;19;20337;-72
2021/12/11 03:54:36;;;;;;;1.23;0.60;;;;;;;;;;7386411;19;20575;-72
2021/12/11 03:57:04;;;;;;;1.60;0.80;;;;;;;;;;7386450;19;20036;-72
2021/12/11 03:59:31;;;;;;;2.35;0.52;;;;;;;;;;7384598;19;20033;-72
2021/12/11 04:02:02;;;;;;;0.65;0.65;;;;;;;;;;7380808;19;20003;-72
2021/12/11 04:04:33;;;;;;;0.85;0.80;;;;;;;;;;7387219;19;20011;-72
2021/12/11 04:07:00;;;;;;;1.85;0.75;;;;;;;;;;7387605;19;20380;-72
2021/12/11 04:09:27;;;;;;;4.20;0.80;;;;;;;;;;7384741;19;20006;-72
2021/12/11 04:11:58;;;;;;;1.23;0.60;;;;;;;;;;7383017;19;20697;-72
2021/12/11 04:14:27;;;;;;;4.30;0.80;;;;;;;;;;7384319;19;20010;-73
2021/12/11 04:16:54;;;;;;;5.18;0.90;;;;;;;;;;7384300;19;20014;-72
2021/12/11 04:19:21;;;;;;;2.15;0.73;;;;;;;;;;7384846;19;20007;-72
2021/12/11 04:21:47;;;;;;;2.22;0.70;;;;;;;;;;7380343;19;20465;-72
2021/12/11 04:24:16;;;;;;;1.90;0.65;;;;;;;;;;7387777;19;20129;-72
2021/12/11 04:26:42;;;;;;;3.22;1.20;;;;;;;;;;7384509;19;20006;-72
2021/12/11 04:29:08;;;;;;;5.68;0.63;;;;;;;;;;7381843;19;20027;-72
2021/12/11 04:31:36;;;;;;;2.35;0.90;;;;;;;;;;7385337;19;20038;-72
2021/12/11 04:34:06;;;;;;;3.45;0.80;;;;;;;;;;7383314;19;20006;-72
2021/12/11 04:36:37;;;;;;;2.22;0.80;;;;;;;;;;7384311;19;20369;-72
2021/12/11 04:39:10;;;;;;;0.77;0.77;;;;;;;;;;7384972;19;20058;-72
2021/12/11 04:41:48;;;;;;;2.38;0.82;;;;;;;;;;7382812;19;20073;-72
2021/12/11 04:44:23;;;;;;;3.15;0.77;;;;;;;;;;7382632;19;20493;-72
2021/12/11 04:46:49;;;;;;;;;;;;;;;;;;7386959;19;20034;-72
2021/12/11 04:49:25;;;;;;;2.60;0.77;;;;;;;;;;7388711;19;19954;-73
2021/12/11 04:52:03;;;;;;;1.52;0.85;;;;;;;;;;7379553;19;20007;-72
2021/12/11 04:54:52;;;;;;;1.85;0.60;;;;;;;;;;7383502;19;20002;-72
2021/12/11 05:11:37;;;;;;;1.13;0.80;;;;;;;;;;7383159;19;20126;-75
2021/12/11 05:14:04;;;;;;;2.22;0.60;;;;;;;;;;7381886;19;20476;-73
2021/12/11 05:16:29;;;;;;;0.85;0.70;;;;;;;;;;7384056;19;20066;-75
2021/12/11 05:18:55;;;;;;;1.55;0.63;;;;;;;;;;7376525;19;20087;-70
2021/12/11 05:21:20;;;;;;;0.82;0.75;;;;;;;;;;7378882;19;20054;-70
2021/12/11 05:23:48;;;;;;;1.13;0.75;;;;;;;;;;7347637;19;20014;-70
2021/12/11 05:26:13;;;;;;;1.73;1.23;;;;;;;;;;7381263;19;20042;-70
2021/12/11 05:28:40;;;;;;;1.27;0.80;;;;;;;;;;7383070;19;20444;-70
2021/12/11 05:31:07;;;;;;;1.20;0.80;;;;;;;;;;7378546;19;20914;-70
2021/12/11 05:33:34;;;;;;;0.73;0.47;;;;;;;;;;7372994;19;20018;-70
2021/12/11 05:35:59;;;;;;;1.17;0.70;;;;;;;;;;7379694;19;20013;-70
2021/12/11 05:38:25;;;;;;;0.80;0.70;;;;;;;;;;7378810;19;20054;-70
2021/12/11 05:40:59;;;;;;;0.80;0.55;;;;;;;;;;7381223;19;20035;-70
2021/12/11 05:43:25;;;;;;;1.80;0.70;;;;;;;;;;7378200;19;20007;-70
2021/12/11 05:45:50;;;;;;;1.65;0.85;;;;;;;;;;7382120;19;20599;-70
2021/12/11 05:48:16;;;;;;;1.15;0.60;;;;;;;;;;7379396;19;20286;-70
2021/12/11 05:50:54;;;;;;;1.10;0.65;;;;;;;;;;7377303;19;20040;-70
2021/12/11 05:53:21;;;;;;;1.70;0.73;;;;;;;;;;7379244;19;20010;-70
2021/12/11 05:55:48;;;;;;;1.38;0.68;;;;;;;;;;7380520;19;19998;-70
2021/12/11 05:58:22;;;;;;;0.60;0.60;;;;;;;;;;7376696;19;20011;-70
2021/12/11 06:00:49;;;;;;;1.48;0.60;;;;;;;;;;7377507;19;20355;-70
2021/12/11 06:03:15;;;;;;;0.70;0.70;;;;;;;;;;7376739;19;20063;-70
2021/12/11 06:05:43;;;;;;;1.63;0.70;;;;;;;;;;7381246;19;20033;-70
2021/12/11 06:08:09;;;;;;;1.10;0.70;;;;;;;;;;7379323;19;20472;-70
2021/12/11 06:10:39;;;;;;;2.08;0.60;;;;;;;;;;7376947;19;20127;-70
2021/12/11 06:13:05;;;;;;;1.05;0.70;;;;;;;;;;7378866;19;20354;-70
2021/12/11 06:15:30;;;;;;;1.50;0.70;;;;;;;;;;7378511;19;20062;-70
2021/12/11 06:17:56;;;;;;;1.70;0.70;;;;;;;;;;7377537;19;20011;-70
2021/12/11 06:20:25;;;;;;;1.25;0.50;;;;;;;;;;7377147;19;20086;-70
2021/12/11 06:22:51;;;;;;;0.50;0.50;;;;;;;;;;7376327;19;20017;-70
2021/12/11 06:25:23;;;;;;;1.20;0.60;;;;;;;;;;7377855;19;20006;-70
2021/12/11 06:27:48;;;;;;;0.80;0.50;;;;;;;;;;7377514;19;20014;-70
2021/12/11 06:30:16;;;;;;;1.38;0.60;;;;;;;;;;7379861;19;20028;-70
2021/12/11 06:32:42;;;;;;;0.47;0.47;;;;;;;;;;7386562;19;20010;-70
2021/12/11 06:35:35;;;;;;;1.55;0.68;;;;;;;;;;7385103;19;20108;-70
2021/12/11 06:38:02;;;;;;;1.25;0.63;;;;;;;;;;7384018;19;20047;-70
2021/12/11 06:40:28;;;;;;;2.72;1.63;;;;;;;;;;7381782;19;20021;-70
2021/12/11 06:42:54;;;;;;;2.05;0.75;;;;;;;;;;7384432;19;20026;-70
2021/12/11 06:45:22;;;;;;;2.72;1.13;;;;;;;;;;7347630;19;20128;-69
2021/12/11 06:47:47;;;;;;;0.60;0.60;;;;;;;;;;7387821;19;20021;-70
2021/12/11 06:50:13;;;;;;;1.17;0.80;;;;;;;;;;7384643;19;20002;-70
2021/12/11 06:52:41;;;;;;;1.65;0.70;;;;;;;;;;7383308;19;20054;-70
2021/12/11 06:55:06;;;;;;;1.00;0.90;;;;;;;;;;7383561;19;20338;-69
2021/12/11 06:57:32;;;;;;;2.45;1.20;;;;;;;;;;7386552;19;20006;-69
2021/12/11 06:59:57;;;;;;;1.33;1.00;;;;;;;;;;7380942;19;20015;-69
2021/12/11 07:02:23;;;;;;;1.02;0.93;;;;;;;;;;7382271;19;20030;-69
2021/12/11 07:04:50;;;;;;;2.20;0.90;;;;;;;;;;7384558;19;20061;-69
2021/12/11 07:07:21;;;;;;;1.45;0.95;;;;;;;;;;7381922;19;19994;-69
2021/12/11 07:09:47;;;;;;;1.02;0.75;;;;;;;;;;7379721;19;20400;-70
2021/12/11 07:12:12;;;;;;;1.23;0.70;;;;;;;;;;7382819;19;20020;-69
2021/12/11 07:14:38;;;;;;;1.58;0.93;;;;;;;;;;7383348;19;20070;-69
2021/12/11 07:17:04;;;;;;;2.60;0.82;;;;;;;;;;7380187;19;20475;-69
2021/12/11 07:19:29;;;;;;;0.70;0.70;;;;;;;;;;7384375;19;19994;-70
2021/12/11 07:21:55;;;;;;;0.65;0.65;;;;;;;;;;7380585;19;20013;-70
2021/12/11 07:24:27;;;;;;;0.60;0.60;;;;;;;;;;7379615;19;20444;-69
2021/12/11 07:26:52;;;;;;;0.85;0.85;;;;;;;;;;7384906;19;20813;-69
2021/12/11 07:29:19;;;;;;;2.33;0.95;;;;;;;;;;7382928;19;20038;-69
2021/12/11 07:31:47;;;;;;;2.22;0.80;;;;;;;;;;7377538;19;20070;-69
2021/12/11 07:34:12;;;;;;;0.70;0.70;;;;;;;;;;7353265;19;20020;-69
2021/12/11 07:36:39;;;;;;;1.33;1.00;;;;;;;;;;7380829;19;20066;-69
2021/12/11 07:39:10;;;;;;;3.03;1.15;;;;;;;;;;7379796;19;20026;-69
2021/12/11 07:41:36;;;;;;;1.00;0.85;;;;;;;;;;7380560;19;20006;-69
2021/12/11 07:44:02;;;;;;;0.95;0.85;;;;;;;;;;7382493;19;20012;-69
2021/12/11 07:46:30;;;;;;;1.58;1.05;;;;;;;;;;7381907;19;20007;-69
2021/12/11 07:48:57;;;;;;;1.15;1.05;;;;;;;;;;7382260;19;20006;-70
2021/12/11 07:51:26;;;;;;;0.80;0.80;;;;;;;;;;7380915;19;20038;-70
2021/12/11 07:53:53;;;;;;;1.45;1.00;;;;;;;;;;7382259;19;20007;-70
2021/12/11 07:56:20;;;;;;;2.28;1.10;;;;;;;;;;7380507;19;20476;-69
2021/12/11 07:58:48;;;;;;;1.30;1.20;;;;;;;;;;7383280;19;20003;-69
2021/12/11 08:01:14;;;;;;;1.83;1.40;;;;;;;;;;7382181;19;20026;-70
2021/12/11 08:03:40;;;;;;;2.30;2.10;;;;;;;;;;7381753;19;19999;-69
2021/12/11 08:06:07;;;;;;;3.97;2.33;;;;;;;;;;7382292;19;20006;-70
2021/12/11 08:08:32;;;;;;;4.15;2.67;;;;;;;;;;7380878;19;20076;-69
2021/12/11 08:11:01;;;;;;;6.13;2.55;;;;;;;;;;7379879;19;20373;-70
2021/12/11 08:13:27;;;;;;;2.88;1.85;;;;;;;;;;7380455;19;19999;-70
2021/12/11 08:15:55;;;;;;;2.80;2.03;;;;;;;;;;7380561;19;20011;-70
2021/12/11 08:18:22;;;;;;;4.38;2.30;;;;;;;;;;7379194;19;20023;-70
2021/12/11 08:20:48;;;;;;;4.25;2.40;;;;;;;;;;7382323;19;20014;-70
2021/12/11 08:23:16;;;;;;;7.05;2.90;;;;;;;;;;7379074;19;20018;-70
2021/12/11 08:25:43;;;;;;;2.28;1.77;;;;;;;;;;7381854;19;20082;-70
2021/12/11 08:28:11;;;;;;;3.20;2.13;;;;;;;;;;7378504;19;20352;-70
2021/12/11 08:30:39;;;;;;;2.05;1.45;;;;;;;;;;7382884;19;20476;-70
2021/12/11 08:33:05;;;;;;;1.77;1.50;;;;;;;;;;7380850;19;20006;-70
2021/12/11 08:35:31;;;;;;;2.13;1.40;;;;;;;;;;7380845;19;20074;-70
2021/12/11 08:37:57;;;;;;;2.70;1.48;;;;;;;;;;7379723;19;20040;-70
2021/12/11 08:40:28;;;;;;;1.50;1.40;;;;;;;;;;7378930;19;20010;-70
2021/12/11 08:42:53;;;;;;;1.85;1.20;;;;;;;;;;7378076;19;20005;-70
2021/12/11 08:45:23;;;;;;;1.70;1.48;;;;;;;;;;7380283;19;20686;-70
2021/12/11 08:47:53;;;;;;;1.40;1.20;;;;;;;;;;7378136;19;20018;-70
2021/12/11 08:50:21;;;;;;;1.05;0.98;;;;;;;;;;7375513;19;19998;-70
2021/12/11 08:52:49;;;;;;;2.28;1.48;;;;;;;;;;7375707;19;20006;-70
2021/12/11 08:55:28;;;;;;;2.50;1.50;;;;;;;;;;7378345;19;20002;-70
2021/12/11 08:57:54;;;;;;;2.47;2.03;;;;;;;;;;7375442;19;20010;-70
2021/12/11 09:00:45;;;;;;;2.70;1.88;;;;;;;;;;7376218;19;20086;-70
2021/12/11 09:03:19;;;;;;;1.67;1.40;;;;;;;;;;7374068;19;20031;-70
2021/12/11 09:05:49;;;;;;;1.60;1.45;;;;;;;;;;7379798;19;20039;-70
2021/12/11 09:08:20;;;;;;;2.97;1.98;;;;;;;;;;7375408;19;19994;-70
2021/12/11 09:10:54;;;;;;;2.40;1.75;;;;;;;;;;7376662;19;20015;-70
2021/12/11 09:13:26;;;;;;;2.22;1.60;;;;;;;;;;7376933;19;20023;-70
2021/12/11 09:15:57;;;;;;;2.30;1.65;;;;;;;;;;7379043;19;20021;-71
2021/12/11 09:18:32;;;;;;;2.28;1.80;;;;;;;;;;7373449;19;19999;-70
2021/12/11 09:21:03;;;;;;;1.73;1.40;;;;;;;;;;7377997;19;20011;-70
2021/12/11 09:23:38;;;;;;;2.25;1.77;;;;;;;;;;7373106;19;20031;-70
2021/12/11 09:26:14;;;;;;;1.63;1.52;;;;;;;;;;7377399;19;20461;-70
2021/12/11 09:29:08;;;;;;;2.30;1.77;;;;;;;;;;7376234;19;20015;-70
2021/12/11 09:31:42;;;;;;;1.77;1.58;;;;;;;;;;7373256;19;20019;-69
2021/12/11 09:34:20;;;;;;;2.20;1.97;;;;;;;;;;7374400;19;20073;-69
2021/12/11 09:36:49;;;;;;;1.80;1.58;;;;;;;;;;7371938;19;20037;-70
2021/12/11 09:39:25;;;;;;;3.88;1.90;;;;;;;;;;7377782;19;20090;-72
2021/12/11 09:41:50;;;;;;;2.05;1.65;;;;;;;;;;7377140;19;20010;-70
2021/12/11 09:44:21;;;;;;;2.20;1.88;;;;;;;;;;7379395;19;20480;-69
2021/12/11 09:46:53;;;;;;;2.83;1.80;;;;;;;;;;7379983;19;20007;-70
2021/12/11 09:49:23;;;;;;;2.30;1.90;;;;;;;;;;7379611;19;20377;-70
2021/12/11 09:51:58;;;;;;;3.17;2.40;;;;;;;;;;7377642;19;20444;-70
2021/12/11 09:54:24;;;;;;;3.15;2.15;;;;;;;;;;7380889;19;20447;-70
2021/12/11 09:57:00;;;;;;;3.25;1.85;;;;;;;;;;7375454;19;20469;-70
2021/12/11 09:59:31;;;;;;;2.88;1.98;;;;;;;;;;7379321;19;20011;-70
2021/12/11 10:02:01;;;;;;;2.95;2.10;;;;;;;;;;7380564;19;20355;-70
2021/12/11 10:04:38;;;;;;;2.60;2.03;;;;;;;;;;7376223;19;20019;-69
2021/12/11 10:09:40;;;;;;;2.25;1.83;;;;;;;;;;7370144;19;20011;-69
2021/12/11 10:12:11;;;;;;;2.35;1.95;;;;;;;;;;7330684;19;20113;-70
2021/12/11 10:14:40;;;;;;;3.40;2.10;;;;;;;;;;7370264;19;20014;-70
2021/12/11 10:17:16;;;;;;;2.90;2.22;;;;;;;;;;7369494;19;20010;-69
2021/12/11 10:19:44;;;;;;;2.35;1.77;;;;;;;;;;7372664;19;20010;-71
2021/12/11 10:22:33;;;;;;;2.22;1.95;;;;;;;;;;7366405;19;20595;-71
2021/12/11 10:25:00;;;;;;;6.15;2.60;;;;;;;;;;7370006;19;20014;-71
2021/12/11 10:27:29;;;;;;;11.38;4.15;;;;;;;;;;7371540;19;20355;-72
2021/12/11 10:29:57;;;;;;;2.95;1.90;;;;;;;;;;7366509;19;20010;-76
2021/12/11 10:32:26;;;;;;;2.25;1.80;;;;;;;;;;7369078;19;20006;-72
2021/12/11 10:34:57;;;;;;;2.67;2.20;;;;;;;;;;7369041;19;20021;-70
2021/12/11 10:37:29;;;;;;;2.00;1.67;;;;;;;;;;7368186;19;20018;-70
2021/12/11 10:39:58;;;;;;;2.20;2.00;;;;;;;;;;7368822;19;20042;-70
2021/12/11 10:42:24;;;;;;;12.15;5.75;;;;;;;;;;7369607;19;20108;-69
2021/12/11 10:44:52;;;;;;;2.28;1.80;;;;;;;;;;7367628;19;20034;-69
2021/12/11 10:47:25;;;;;;;2.50;2.03;;;;;;;;;;7373740;19;20561;-69
2021/12/11 10:49:52;;;;;;;2.22;1.40;;;;;;;;;;7365844;19;20016;-70
2021/12/11 10:52:29;;;;;;;2.53;2.05;;;;;;;;;;7365479;19;20017;-70
2021/12/11 10:55:00;;;;;;;3.13;2.20;;;;;;;;;;7371044;19;20018;-70
2021/12/11 10:57:26;;;;;;;2.75;2.13;;;;;;;;;;7370102;19;20034;-70
2021/12/11 10:59:54;;;;;;;3.63;2.40;;;;;;;;;;7369717;19;20006;-70
2021/12/11 11:02:28;;;;;;;5.57;3.03;;;;;;;;;;7337611;19;20058;-70
2021/12/11 11:05:01;;;;;;;3.67;2.65;;;;;;;;;;7364957;19;20407;-70
2021/12/11 11:07:28;;;;;;;3.88;3.05;;;;;;;;;;7372006;19;20336;-70
2021/12/11 11:09:57;;;;;;;1.90;1.63;;;;;;;;;;7367944;19;20043;-70
2021/12/11 11:12:24;;;;;;;2.38;1.90;;;;;;;;;;7370247;19;20011;-70
2021/12/11 11:14:53;;;;;;;2.65;2.03;;;;;;;;;;7370854;19;20514;-70
2021/12/11 11:17:21;;;;;;;2.30;2.10;;;;;;;;;;7372471;19;20007;-69
2021/12/11 11:19:49;;;;;;;4.13;2.40;;;;;;;;;;7374390;19;20449;-70
2021/12/11 11:22:19;;;;;;;2.40;1.80;;;;;;;;;;7373824;19;20018;-70
2021/12/11 11:25:00;;;;;;;3.13;2.50;;;;;;;;;;7379306;19;20014;-70
2021/12/11 11:27:26;;;;;;;2.55;2.10;;;;;;;;;;7377440;19;20010;-70
2021/12/11 11:29:52;;;;;;;2.20;1.92;;;;;;;;;;7371849;19;20051;-70
2021/12/11 11:32:31;;;;;;;3.47;2.60;;;;;;;;;;7373852;19;20014;-70
2021/12/11 11:35:09;;;;;;;3.33;2.58;;;;;;;;;;7372340;19;20472;-70
2021/12/11 11:37:35;;;;;;;2.90;2.40;;;;;;;;;;7375982;19;20015;-70
2021/12/11 11:40:06;;;;;;;2.35;2.10;;;;;;;;;;7371471;19;20014;-71
2021/12/11 11:42:32;;;;;;;2.83;2.20;;;;;;;;;;7371711;19;20015;-70
2021/12/11 11:44:59;;;;;;;2.88;2.22;;;;;;;;;;7376957;19;19999;-72
2021/12/11 11:47:24;;;;;;;4.00;2.47;;;;;;;;;;7376605;19;20014;-70
2021/12/11 11:49:56;;;;;;;2.35;2.03;;;;;;;;;;7373498;19;20062;-70
2021/12/11 11:52:22;;;;;;;7.50;3.92;;;;;;;;;;7377658;19;20326;-70
2021/12/11 11:54:51;;;;;;;3.20;2.80;;;;;;;;;;7377931;19;20133;-70
2021/12/11 11:57:20;;;;;;;3.30;2.83;;;;;;;;;;7382645;19;20018;-70
2021/12/11 11:59:46;;;;;;;3.30;2.65;;;;;;;;;;7377470;19;20003;-70
2021/12/11 12:02:20;;;;;;;2.80;2.40;;;;;;;;;;7375149;19;20018;-70
2021/12/11 12:04:47;;;;;;;2.45;2.10;;;;;;;;;;7380166;19;20011;-70
2021/12/11 12:07:15;;;;;;;4.03;2.70;;;;;;;;;;7379495;19;20021;-70
2021/12/11 12:09:45;;;;;;;2.60;2.22;;;;;;;;;;7377047;19;20006;-70
2021/12/11 12:12:13;;;;;;;2.92;2.55;;;;;;;;;;7382314;19;20532;-70
2021/12/11 12:14:40;;;;;;;2.95;2.40;;;;;;;;;;7383800;19;20023;-70
2021/12/11 12:17:10;;;;;;;2.20;1.98;;;;;;;;;;7382886;19;20548;-70
2021/12/11 12:19:36;;;;;;;2.97;2.30;;;;;;;;;;7382468;19;20510;-70
2021/12/11 12:22:05;;;;;;;3.15;2.33;;;;;;;;;;7379804;19;20010;-70
2021/12/11 12:24:34;;;;;;;3.17;2.40;;;;;;;;;;7382031;19;20111;-69
2021/12/11 12:27:03;;;;;;;3.63;2.50;;;;;;;;;;7380860;19;20993;-70
2021/12/11 12:29:29;;;;;;;3.70;2.40;;;;;;;;;;7377630;19;20118;-72
2021/12/11 12:32:03;;;;;;;3.03;2.30;;;;;;;;;;7375977;19;20015;-70
2021/12/11 12:34:29;;;;;;;2.70;2.38;;;;;;;;;;7381214;19;20078;-70
2021/12/11 12:36:56;;;;;;;3.50;2.60;;;;;;;;;;7378711;19;20014;-70
2021/12/11 12:39:37;;;;;;;2.17;1.75;;;;;;;;;;7378419;19;20342;-70
2021/12/11 12:42:25;;;;;;;4.13;2.65;;;;;;;;;;7376248;19;20014;-72
2021/12/11 12:44:58;;;;;;;3.58;2.90;;;;;;;;;;7365223;19;20455;-72
2021/12/11 12:47:30;;;;;;;3.08;2.50;;;;;;;;;;7377061;19;20063;-70
2021/12/11 12:49:59;;;;;;;3.63;2.85;;;;;;;;;;7373530;19;20481;-69
2021/12/11 12:52:35;;;;;;;3.70;3.20;;;;;;;;;;7374086;19;20010;-70
2021/12/11 12:55:06;;;;;;;3.33;2.50;;;;;;;;;;7373656;19;20012;-70
2021/12/11 12:57:37;;;;;;;3.13;2.60;;;;;;;;;;7374047;19;20014;-69
2021/12/11 13:00:15;;;;;;;3.42;2.58;;;;;;;;;;7374392;19;20006;-70
2021/12/11 13:02:40;;;;;;;4.13;2.92;;;;;;;;;;7370845;19;20014;-69
2021/12/11 13:05:12;;;;;;;4.22;3.20;;;;;;;;;;7374256;19;20005;-73
2021/12/11 13:07:38;;;;;;;3.58;2.75;;;;;;;;;;7372071;19;20006;-71
2021/12/11 13:10:11;;;;;;;3.67;2.90;;;;;;;;;;7366718;19;20375;-72
2021/12/11 13:12:40;;;;;;;3.35;2.78;;;;;;;;;;7366891;19;20014;-71
2021/12/11 13:15:21;;;;;;;5.80;3.30;;;;;;;;;;7366892;19;20445;-71
2021/12/11 13:17:49;;;;;;;3.25;2.75;;;;;;;;;;7373877;19;20029;-72
2021/12/11 13:20:20;;;;;;;3.25;2.80;;;;;;;;;;7371615;19;20010;-72
2021/12/11 13:22:49;;;;;;;4.50;3.08;;;;;;;;;;7373915;19;20021;-72
2021/12/11 13:25:20;;;;;;;3.28;2.70;;;;;;;;;;7370744;19;20010;-72
2021/12/11 13:27:48;;;;;;;3.33;2.60;;;;;;;;;;7373650;19;20395;-68
2021/12/11 13:30:19;;;;;;;3.97;3.33;;;;;;;;;;7372949;19;20502;-69
2021/12/11 13:32:45;;;;;;;3.78;2.95;;;;;;;;;;7370863;19;20011;-72
2021/12/11 13:35:15;;;;;;;3.53;2.72;;;;;;;;;;7369519;19;20517;-69
2021/12/11 13:37:40;;;;;;;4.55;2.97;;;;;;;;;;7374756;19;20003;-69
2021/12/11 13:40:11;;;;;;;3.35;2.80;;;;;;;;;;7340013;19;20589;-71
2021/12/11 13:42:37;;;;;;;4.38;3.20;;;;;;;;;;7371991;19;20006;-72
2021/12/11 13:45:09;;;;;;;4.97;3.60;;;;;;;;;;7368562;19;20096;-69
2021/12/11 13:47:36;;;;;;;4.82;3.45;;;;;;;;;;7366488;19;19995;-68
2021/12/11 13:50:09;;;;;;;6.70;4.53;;;;;;;;;;7372108;19;20014;-71
2021/12/11 13:52:35;;;;;;;4.60;3.58;;;;;;;;;;7372336;19;20405;-72
2021/12/11 13:55:02;;;;;;;4.78;3.63;;;;;;;;;;7366837;19;20015;-71
2021/12/11 13:57:28;;;;;;;7.22;4.00;;;;;;;;;;7372225;19;20735;-71
2021/12/11 13:59:57;;;;;;;8.40;4.13;;;;;;;;;;7370707;19;20010;-72
2021/12/11 14:02:24;;;;;;;4.32;3.45;;;;;;;;;;7365537;19;20058;-71
2021/12/11 14:04:52;;;;;;;6.00;4.05;;;;;;;;;;7370271;19;20039;-72
2021/12/11 14:07:20;;;;;;;5.30;3.47;;;;;;;;;;7365581;19;20014;-72
2021/12/11 14:09:59;;;;;;;5.30;3.80;;;;;;;;;;7364698;19;20056;-72
2021/12/11 14:12:28;;;;;;;8.38;4.28;;;;;;;;;;7363474;19;20014;-71
2021/12/11 14:14:55;;;;;;;5.32;3.80;;;;;;;;;;7370804;19;20046;-72
2021/12/11 14:17:22;;;;;;;5.93;3.88;;;;;;;;;;7371766;19;22153;-73
2021/12/11 14:19:48;;;;;;;6.20;4.22;;;;;;;;;;7372907;19;20030;-72
2021/12/11 14:22:16;;;;;;;6.65;4.30;;;;;;;;;;7369078;19;20142;-72
2021/12/11 14:24:43;;;;;;;5.78;4.40;;;;;;;;;;7372093;19;20042;-72
2021/12/11 14:27:14;;;;;;;6.15;4.38;;;;;;;;;;7377812;19;20098;-71
2021/12/11 14:29:45;;;;;;;9.15;4.93;;;;;;;;;;7374101;19;20014;-74
2021/12/11 14:32:24;;;;;;;6.88;4.38;;;;;;;;;;7374929;19;20006;-71
2021/12/11 14:34:51;;;;;;;8.80;5.28;;;;;;;;;;7375571;19;20504;-73
2021/12/11 14:37:17;;;;;;;11.25;5.45;;;;;;;;;;7378061;19;20430;-75
2021/12/11 14:39:47;;;;;;;18.83;9.15;;;;;;;;;;7370835;19;20366;-73
2021/12/11 14:42:19;;;;;;;8.75;5.80;;;;;;;;;;7376447;19;20011;-73
2021/12/11 14:44:47;;;;;;;9.23;5.40;;;;;;;;;;7373991;19;20011;-72
2021/12/11 14:47:13;;;;;;;10.07;6.03;;;;;;;;;;7376953;19;20025;-74
2021/12/11 14:49:41;;;;;;;8.77;5.28;;;;;;;;;;7372394;19;20049;-73
2021/12/11 14:52:09;;;;;;;8.18;5.85;;;;;;;;;;7381485;19;20085;-70
2021/12/11 14:54:35;;;;;;;6.80;5.28;;;;;;;;;;7381972;19;20002;-71
2021/12/11 14:57:01;;;;;;;8.07;5.80;;;;;;;;;;7383779;19;20343;-72
2021/12/11 14:59:31;;;;;;;8.73;6.22;;;;;;;;;;7379278;19;20062;-75
2021/12/11 15:02:06;;;;;;;6.88;5.22;;;;;;;;;;7381884;19;20101;-72
2021/12/11 15:04:36;;;;;;;8.98;6.10;;;;;;;;;;7383892;19;20035;-73
2021/12/11 15:07:03;;;;;;;9.82;6.22;;;;;;;;;;7382334;19;20478;-74
2021/12/11 15:09:29;;;;;;;9.65;6.03;;;;;;;;;;7380923;19;20006;-72
2021/12/11 15:11:57;;;;;;;9.02;5.75;;;;;;;;;;7380105;19;20027;-73
2021/12/11 15:14:23;;;;;;;11.55;7.00;;;;;;;;;;7386757;19;20002;-72
2021/12/11 15:16:52;;;;;;;8.20;6.13;;;;;;;;;;7380325;19;20026;-73
2021/12/11 15:19:18;;;;;;;24.23;14.30;;;;;;;;;;7382965;19;20045;-73